Nampa, ID (83651)

4:33 PM MST on February 20, 2017 (GMT -0700)
Willow Creek | | Change Station
Active Advisory: Flood Warning

Elev 2490 ft 43.58 °N, 116.60 °W | Updated 1 second ago

Overcast
Overcast
54.0 °F
Feels Like 54.0 °F
N
0.0
Wind Variable Wind from North
Gusts 0.0 mph

Today
High -- | Low -- °F
--% Chance of Precip.
Yesterday
High -- | Low -- °F
Precip. -- in
Pressure 29.76 in
Visibility 10.0 miles
Clouds Mostly Cloudy 6000 ft
Mostly Cloudy 7000 ft
Overcast 8500 ft
Dew Point 44 °F
Humidity 69%
Rainfall 0.00 in
Snow Depth Not available.
7:36 AM 6:23 PM
Waning Crescent, 30% visible
METAR KMAN 202315Z AUTO 25007KT 10SM BKN060 BKN070 OVC085 11/07 A2976 RMK A01
Pressure 29.76 in
Visibility 10.0 miles
Clouds Mostly Cloudy 6000 ft
Mostly Cloudy 7000 ft
Overcast 8500 ft
Dew Point 44 °F
Humidity 69%
Rainfall 0.00 in
Snow Depth Not available.
7:36 AM 6:23 PM
Waning Crescent, 30% visible
METAR KMAN 202315Z AUTO 25007KT 10SM BKN060 BKN070 OVC085 11/07 A2976 RMK A01

Get Your Daily Forecast Email!

Thanks for signing up!

Be on the lookout for a verification email in your inbox.

You'll start receiving the daily forecast at 8 AM.

×

10-Day Weather Forecast

Almanac

Astronomy

Feb. 20, 2017 Rise Set
Actual Time
Civil Twilight
Nautical Twilight
Astronomical Twilight
Moon
Length of Visible Light
Length of Day
Tomorrow will be .
, % of the Moon is Illuminated

Today's Extremes

State Highs State Lows

Community

WunderPhotos

Upload Photos

1,962,540 photos uploaded!

WunderBlog® & News

Nearby

Air Quality

  Air Quality AQ Index Pollutant
Not available.

Snow Depth

Station Depth Elevation

Earthquake Activity

City Distance Mag. Time & Date
Minimum magnitude displayed is 2.5.

Coastal Water Temperatures

Place Temperature

Stations

Nearby Weather Stations

Station Location Temp. Windchill Dew Point Humidity Wind Precip. Elev Updated Type
                   

Watches & Warnings

Flood Warning
Issued: 1:25 PM MST Feb. 20, 2017 – National Weather Service

... Flood Warning extended until Wednesday evening... the Flood Warning
continues for
the Weiser river near Weiser.
* From Tuesday afternoon to Wednesday evening... or until the warning
is cancelled.
* At 12:00 PM Monday the stage was 8.1 feet.
* Minor flooding is forecast.
* Flood stage is 9.5 feet.
* Forecast... rise above flood stage by tomorrow early afternoon and
continue to rise to near 10.2 feet by tomorrow late evening. The
river will fall below flood stage by Wednesday early afternoon.
* Impact... at 10.3 feet... floodwater will approach the Cove Road
bridge over the Weiser river making it unsafe to cross.


Lat... Lon 4427 11696 4427 11679 4421 11677 4420 11697